Time;durP1;ratioP1;P1;durP2;ratioP2;P2;SDS_P1;SDS_P2;PMS_P1;PMS_P2;Temp;Humidity;BMP_temperature;BMP_pressure;BME280_temperature;BME280_humidity;BME280_pressure;Samples;Min_cycle;Max_cycle;Signal;HPM_P1;HPM_P2
2021/10/28 00:14:10;;;;;;;10.05;5.50;;;;;;;11.78;85.81;101919.16;4875559;29;20199;-45
2021/10/28 00:16:38;;;;;;;11.57;5.20;;;;;;;11.80;86.03;101914.28;4860089;29;20058;-46
2021/10/28 00:19:06;;;;;;;18.10;5.32;;;;;;;11.84;86.51;101918.19;4864444;29;20131;-46
2021/10/28 00:21:36;;;;;;;9.40;4.90;;;;;;;11.85;85.18;101919.81;4917838;29;20059;-44
2021/10/28 00:24:09;;;;;;;10.25;5.15;;;;;;;11.81;85.77;101921.41;4951349;29;20051;-46
2021/10/28 00:26:38;;;;;;;14.38;5.50;;;;;;;11.80;85.07;101922.47;4950319;29;20423;-47
2021/10/28 00:29:08;;;;;;;10.63;5.10;;;;;;;11.78;85.12;101918.34;4947941;29;20097;-47
2021/10/28 00:31:37;;;;;;;10.10;5.13;;;;;;;11.72;85.17;101915.53;4951234;29;20036;-46
2021/10/28 00:34:07;;;;;;;10.05;4.90;;;;;;;11.68;84.67;101919.00;4950429;29;20502;-46
2021/10/28 00:36:35;;;;;;;13.90;5.80;;;;;;;11.66;85.73;101921.16;4969333;28;20047;-46
2021/10/28 00:39:08;;;;;;;11.85;5.22;;;;;;;11.68;85.63;101908.91;4991002;28;20416;-47
2021/10/28 00:41:36;;;;;;;9.77;5.57;;;;;;;11.68;85.83;101908.09;4991753;28;20070;-45
2021/10/28 00:44:05;;;;;;;14.38;5.43;;;;;;;11.69;85.96;101907.84;4991664;28;20046;-46
2021/10/28 00:46:34;;;;;;;10.02;4.85;;;;;;;11.72;85.29;101907.34;4991696;28;20038;-46
2021/10/28 00:49:05;;;;;;;10.60;4.85;;;;;;;11.74;84.75;101901.66;4991294;28;20480;-46
2021/10/28 00:51:33;;;;;;;10.45;5.20;;;;;;;11.73;85.26;101897.25;4991716;28;20387;-46
2021/10/28 00:54:01;;;;;;;10.07;5.03;;;;;;;11.67;84.44;101903.72;4991621;28;20059;-47
2021/10/28 00:56:32;;;;;;;9.93;4.70;;;;;;;11.65;85.55;101898.50;4991668;28;20042;-45
2021/10/28 00:59:01;;;;;;;9.05;4.78;;;;;;;11.66;84.54;101905.59;4991580;28;20042;-41
2021/10/28 01:01:29;;;;;;;10.38;4.25;;;;;;;11.65;85.52;101903.13;4991945;28;20167;-46
2021/10/28 01:03:58;;;;;;;9.30;5.03;;;;;;;11.66;85.53;101899.31;4991943;28;20047;-43
2021/10/28 01:06:26;;;;;;;9.30;4.90;;;;;;;11.67;84.86;101899.09;4991449;28;20038;-48
2021/10/28 01:08:53;;;;;;;8.93;5.03;;;;;;;11.67;84.09;101901.00;4991055;28;20092;-46
2021/10/28 01:11:21;;;;;;;10.27;4.78;;;;;;;11.61;84.67;101908.25;4990458;28;20526;-47
2021/10/28 01:13:48;;;;;;;10.57;5.03;;;;;;;11.57;85.02;101901.66;4992120;28;20096;-48
2021/10/28 01:16:16;;;;;;;9.60;5.07;;;;;;;11.56;84.43;101904.63;4991915;28;20050;-47
2021/10/28 01:18:44;;;;;;;9.27;4.60;;;;;;;11.48;84.79;101908.59;4988899;28;20050;-48
2021/10/28 01:21:11;;;;;;;9.57;4.95;;;;;;;11.48;84.87;101897.69;4990529;28;20409;-45
2021/10/28 01:23:41;;;;;;;10.32;4.95;;;;;;;11.49;85.47;101900.13;4991276;28;20038;-45
2021/10/28 01:26:13;;;;;;;10.10;4.95;;;;;;;11.51;85.35;101897.16;4991414;28;20108;-46
2021/10/28 01:28:52;;;;;;;14.10;5.40;;;;;;;11.50;85.04;101904.53;4990985;28;20046;-47
2021/10/28 01:31:21;;;;;;;10.82;5.05;;;;;;;11.51;84.42;101902.63;5006531;28;20054;-47
2021/10/28 01:33:49;;;;;;;9.57;4.55;;;;;;;11.50;85.28;101901.81;4991517;28;20505;-47
2021/10/28 01:36:17;;;;;;;9.02;4.35;;;;;;;11.55;85.53;101902.97;4991314;28;20142;-46
2021/10/28 01:38:45;;;;;;;12.10;5.28;;;;;;;11.59;85.08;101901.38;4992129;28;20054;-46
2021/10/28 01:41:13;;;;;;;10.25;5.20;;;;;;;11.60;85.05;101895.69;4992470;28;20566;-46
2021/10/28 01:43:41;;;;;;;10.02;4.90;;;;;;;11.62;84.34;101890.00;4994737;28;20417;-45
2021/10/28 01:46:09;;;;;;;9.32;4.53;;;;;;;11.59;83.85;101890.47;4994580;28;20043;-47
2021/10/28 01:48:39;;;;;;;10.05;5.07;;;;;;;11.57;84.29;101895.34;4993451;28;20042;-45
2021/10/28 01:51:08;;;;;;;10.93;5.07;;;;;;;11.52;83.86;101888.75;4994584;28;20525;-42
2021/10/28 01:53:40;;;;;;;12.20;4.72;;;;;;;11.46;83.62;101892.47;4994863;28;20035;-46
2021/10/28 01:56:09;;;;;;;11.15;4.85;;;;;;;11.46;83.87;101883.44;4994561;28;20145;-48
2021/10/28 01:58:37;;;;;;;7.28;4.50;;;;;;;11.45;84.02;101877.16;4994082;28;20093;-45
2021/10/28 02:01:06;;;;;;;8.50;4.60;;;;;;;11.44;84.14;101878.22;4994756;28;20042;-48
2021/10/28 02:03:35;;;;;;;10.15;4.80;;;;;;;11.43;84.04;101868.41;4994765;28;20516;-46
2021/10/28 02:06:03;;;;;;;11.50;4.70;;;;;;;11.44;83.52;101880.13;4994590;28;20038;-47
2021/10/28 02:08:31;;;;;;;7.75;4.20;;;;;;;11.39;83.89;101875.41;4993933;28;20062;-42
2021/10/28 02:10:59;;;;;;;8.43;4.60;;;;;;;11.35;84.35;101876.97;4994500;28;20047;-46
2021/10/28 02:13:27;;;;;;;12.23;4.85;;;;;;;11.32;84.02;101876.66;4994112;28;20074;-47
2021/10/28 02:15:54;;;;;;;9.45;4.75;;;;;;;11.32;84.47;101877.47;4994410;28;20054;-46
2021/10/28 02:18:24;;;;;;;10.77;4.95;;;;;;;11.31;84.41;101875.84;4994065;28;20050;-46
2021/10/28 02:20:52;;;;;;;9.27;4.78;;;;;;;11.33;84.74;101872.84;4993878;28;20050;-46
2021/10/28 02:23:19;;;;;;;8.20;4.47;;;;;;;11.32;84.64;101861.09;4993970;28;20053;-48
2021/10/28 02:25:47;;;;;;;10.95;4.55;;;;;;;11.32;84.49;101855.66;4994333;28;20042;-48
2021/10/28 02:28:15;;;;;;;10.40;4.70;;;;;;;11.31;83.58;101854.00;4993924;28;20109;-48
2021/10/28 02:30:42;;;;;;;10.18;4.90;;;;;;;11.29;83.97;101846.06;4993521;28;20046;-42
2021/10/28 02:33:12;;;;;;;10.55;4.78;;;;;;;11.22;83.90;101858.22;4994015;28;20513;-46
2021/10/28 02:35:39;;;;;;;8.75;4.57;;;;;;;11.17;83.63;101847.22;4993209;28;20505;-46
2021/10/28 02:38:07;;;;;;;8.77;4.68;;;;;;;11.15;84.10;101838.44;4993568;28;20045;-46
2021/10/28 02:40:35;;;;;;;11.75;5.05;;;;;;;11.17;84.64;101841.78;4993528;28;20489;-46
2021/10/28 02:43:03;;;;;;;10.75;5.30;;;;;;;11.17;83.82;101839.03;4993933;28;20058;-46
2021/10/28 02:45:30;;;;;;;10.23;4.90;;;;;;;11.17;83.70;101848.03;4994168;28;20054;-47
2021/10/28 02:47:58;;;;;;;9.02;4.68;;;;;;;11.19;84.58;101839.63;4993777;28;20069;-48
2021/10/28 02:50:26;;;;;;;8.68;4.90;;;;;;;11.19;83.71;101828.72;4992522;28;20053;-48
2021/10/28 02:52:53;;;;;;;9.82;5.07;;;;;;;11.18;83.86;101829.78;4993182;28;20042;-45
2021/10/28 02:55:21;;;;;;;10.07;4.93;;;;;;;11.15;84.08;101831.09;4994004;28;20501;-47
2021/10/28 02:57:48;;;;;;;8.52;5.15;;;;;;;11.11;84.13;101829.09;4993619;28;20049;-46
2021/10/28 03:00:16;;;;;;;10.13;4.95;;;;;;;11.09;84.18;101822.00;4993771;28;20057;-44
2021/10/28 03:02:43;;;;;;;10.88;5.35;;;;;;;11.04;83.63;101818.34;4993776;28;20038;-46
2021/10/28 03:05:11;;;;;;;10.02;5.55;;;;;;;11.03;84.64;101814.78;4993986;28;20081;-44
2021/10/28 03:07:39;;;;;;;9.63;5.22;;;;;;;11.05;84.56;101812.66;4993075;28;20416;-45
2021/10/28 03:10:09;;;;;;;11.50;5.05;;;;;;;11.11;83.76;101808.09;4993677;28;20381;-46
2021/10/28 03:12:39;;;;;;;11.18;5.38;;;;;;;11.13;84.45;101810.59;4993768;28;20501;-48
2021/10/28 03:15:10;;;;;;;10.73;5.43;;;;;;;11.17;83.57;101806.31;4993542;28;20659;-46
2021/10/28 03:17:56;;;;;;;15.13;6.03;;;;;;;11.20;83.90;101805.81;4993565;28;20050;-46
2021/10/28 03:25:55;;;;;;;10.75;5.45;;;;;;;11.18;82.86;101797.03;4993718;28;19927;-44
2021/10/28 03:28:23;;;;;;;12.02;5.80;;;;;;;11.14;83.68;101798.63;4993253;28;20042;-47
2021/10/28 03:30:51;;;;;;;14.90;6.28;;;;;;;11.12;83.01;101793.41;4993444;28;20046;-45
2021/10/28 03:33:22;;;;;;;11.93;5.57;;;;;;;11.09;84.08;101786.56;4993259;28;20069;-44
2021/10/28 03:35:50;;;;;;;11.90;5.57;;;;;;;11.09;83.32;101792.00;4992605;28;20505;-45
2021/10/28 03:38:30;;;;;;;8.68;5.38;;;;;;;11.09;83.66;101786.56;4993140;28;20402;-45
2021/10/28 03:59:44;;;;;;;13.73;6.13;;;;;;;11.07;83.59;101775.06;4988386;28;20043;-45
2021/10/28 04:07:46;;;;;;;12.48;7.10;;;;;;;10.98;83.21;101771.09;4993148;28;20069;-44
2021/10/28 04:29:05;;;;;;;11.73;7.68;;;;;;;10.91;83.85;101755.97;4921683;29;20123;-46
2021/10/28 04:31:35;;;;;;;14.60;7.78;;;;;;;10.92;84.13;101752.16;4932230;29;20471;-43
2021/10/28 04:34:08;;;;;;;12.55;7.38;;;;;;;10.93;83.79;101754.66;4931307;29;20051;-46
2021/10/28 04:36:36;;;;;;;10.98;7.65;;;;;;;10.92;83.20;101758.47;4926072;29;20040;-48
2021/10/28 04:39:09;;;;;;;11.55;7.78;;;;;;;10.87;83.97;101755.63;4924740;29;20070;-46
2021/10/28 04:41:37;;;;;;;12.40;7.68;;;;;;;10.83;83.59;101754.47;4932319;29;20066;-45
2021/10/28 04:44:09;;;;;;;12.95;7.45;;;;;;;10.83;83.82;101754.47;4932542;29;20048;-46
2021/10/28 04:46:37;;;;;;;13.80;7.65;;;;;;;10.81;83.29;101756.63;4930038;29;20518;-46
2021/10/28 04:49:05;;;;;;;12.00;7.93;;;;;;;10.75;83.62;101758.44;4925532;29;20050;-46
2021/10/28 04:51:33;;;;;;;13.38;8.25;;;;;;;10.73;83.69;101752.41;4930171;29;20059;-45
2021/10/28 04:54:00;;;;;;;11.23;7.75;;;;;;;10.74;84.05;101750.50;4932368;29;20044;-46
2021/10/28 04:56:28;;;;;;;14.35;7.85;;;;;;;10.75;83.56;101757.59;4986982;28;20050;-46
2021/10/28 04:58:55;;;;;;;12.82;7.60;;;;;;;10.73;84.00;101755.13;4989571;28;20494;-47
2021/10/28 05:01:25;;;;;;;13.60;7.40;;;;;;;10.74;84.31;101761.41;4991904;28;20046;-45
2021/10/28 05:03:53;;;;;;;12.40;7.95;;;;;;;10.75;83.74;101752.13;4992235;28;20038;-45
2021/10/28 05:06:21;;;;;;;11.70;7.75;;;;;;;10.75;83.64;101758.44;4991912;28;20057;-46
2021/10/28 05:08:48;;;;;;;14.05;7.85;;;;;;;10.73;83.79;101751.59;4991768;28;20042;-49
2021/10/28 05:11:19;;;;;;;13.07;7.82;;;;;;;10.71;83.86;101751.00;4991083;28;20093;-43
2021/10/28 05:13:52;;;;;;;11.90;7.80;;;;;;;10.70;83.37;101749.34;4995561;28;20050;-44
2021/10/28 05:16:20;;;;;;;12.05;7.80;;;;;;;10.70;83.15;101749.34;4995645;28;20054;-45
2021/10/28 05:18:47;;;;;;;11.40;7.85;;;;;;;10.68;83.64;101748.75;4995307;28;20042;-45
2021/10/28 05:21:16;;;;;;;12.32;7.80;;;;;;;10.60;83.66;101745.34;4995781;28;20508;-42
2021/10/28 05:23:46;;;;;;;12.25;7.75;;;;;;;10.56;83.61;101746.94;4996116;28;20050;-46
2021/10/28 05:26:14;;;;;;;12.93;7.43;;;;;;;10.55;84.12;101750.72;4995604;28;20125;-48
2021/10/28 05:28:41;;;;;;;15.63;8.45;;;;;;;10.59;83.84;101753.78;4995367;28;20045;-47
2021/10/28 05:31:09;;;;;;;12.00;7.82;;;;;;;10.57;83.83;101745.84;4995772;28;20070;-48
2021/10/28 05:33:37;;;;;;;13.45;8.73;;;;;;;10.56;83.90;101744.22;4995366;28;20050;-45
2021/10/28 05:36:05;;;;;;;15.15;7.95;;;;;;;10.54;83.17;101734.63;4995187;28;20560;-48
2021/10/28 05:38:32;;;;;;;13.32;8.00;;;;;;;10.47;83.96;101729.31;4995073;28;20051;-46
2021/10/28 05:41:00;;;;;;;13.30;7.13;;;;;;;10.44;84.81;101729.81;5009879;28;20493;-46
2021/10/28 05:43:28;;;;;;;12.35;7.82;;;;;;;10.47;84.28;101731.22;4995644;28;20398;-46
2021/10/28 05:45:55;;;;;;;16.05;8.02;;;;;;;10.48;84.30;101735.59;4995552;28;20038;-44
2021/10/28 05:48:23;;;;;;;13.60;7.53;;;;;;;10.48;83.68;101722.78;4995248;28;20050;-47
2021/10/28 05:50:50;;;;;;;12.88;7.15;;;;;;;10.48;83.85;101709.16;4993218;28;20042;-45
2021/10/28 05:53:19;;;;;;;12.30;7.30;;;;;;;10.45;83.70;101706.94;4995448;28;20047;-46
2021/10/28 05:55:49;;;;;;;11.23;7.28;;;;;;;10.43;83.79;101695.47;4995369;28;20049;-45
2021/10/28 05:58:16;;;;;;;12.43;7.40;;;;;;;10.41;84.09;101693.00;4995029;28;20042;-46
2021/10/28 06:00:44;;;;;;;12.93;7.60;;;;;;;10.43;84.35;101698.19;4994398;28;20046;-45
2021/10/28 06:03:12;;;;;;;17.15;7.80;;;;;;;10.46;83.77;101700.41;4991620;28;20684;-45
2021/10/28 06:05:42;;;;;;;13.75;7.82;;;;;;;10.48;83.68;101692.81;4994274;28;20113;-47
2021/10/28 06:08:09;;;;;;;12.43;7.50;;;;;;;10.49;83.54;101707.28;4992995;28;20045;-44
2021/10/28 06:10:37;;;;;;;14.50;8.10;;;;;;;10.48;83.74;101708.34;4994433;28;20057;-44
2021/10/28 06:13:07;;;;;;;15.07;7.80;;;;;;;10.48;83.58;101706.44;4994261;28;20031;-47
2021/10/28 06:15:35;;;;;;;12.30;7.25;;;;;;;10.48;83.50;101711.06;4994189;28;20050;-45
2021/10/28 06:20:44;;;;;;;12.90;7.53;;;;;;;10.42;83.88;101712.88;4990825;28;20069;-44
2021/10/28 06:23:12;;;;;;;11.85;7.90;;;;;;;10.39;83.78;101713.34;4991321;28;20502;-47
2021/10/28 06:25:40;;;;;;;14.70;7.95;;;;;;;10.37;83.67;101712.81;4992256;28;20043;-46
2021/10/28 06:28:07;;;;;;;16.27;7.72;;;;;;;10.34;83.82;101718.72;4990857;28;20285;-50
2021/10/28 06:30:35;;;;;;;15.38;8.20;;;;;;;10.35;84.52;101713.03;4993109;28;20464;-47
2021/10/28 06:33:24;;;;;;;15.27;7.77;;;;;;;10.38;83.79;101704.38;4865565;28;10000937;-46
2021/10/28 06:35:52;;;;;;;13.27;7.72;;;;;;;10.39;83.47;101710.63;4991127;28;21066;-48
2021/10/28 06:38:20;;;;;;;14.25;7.68;;;;;;;10.40;83.55;101698.69;4991102;28;20054;-47
2021/10/28 06:40:48;;;;;;;18.25;8.15;;;;;;;10.39;83.34;101692.41;4989979;28;20042;-46
2021/10/28 06:43:15;;;;;;;15.50;7.95;;;;;;;10.38;83.21;101692.66;4991379;28;20069;-46
2021/10/28 06:45:43;;;;;;;20.58;7.80;;;;;;;10.38;83.39;101698.09;4991469;28;20417;-47
2021/10/28 06:48:11;;;;;;;17.27;7.93;;;;;;;10.35;82.92;101691.25;4991809;28;20081;-42
2021/10/28 06:50:51;;;;;;;19.63;8.13;;;;;;;10.32;83.10;101689.00;4991154;28;20046;-44
2021/10/28 06:56:07;;;;;;;15.93;8.20;;;;;;;10.31;84.08;101697.41;4990619;28;20041;-45
2021/10/28 07:04:06;;;;;;;17.15;8.70;;;;;;;10.28;83.83;101700.59;4988231;28;19972;-45
2021/10/28 07:06:38;;;;;;;13.48;7.22;;;;;;;10.27;83.85;101701.66;4993598;28;20049;-47
2021/10/28 07:09:19;;;;;;;26.35;8.23;;;;;;;10.26;84.10;101694.56;4993490;28;20042;-47
2021/10/28 07:11:59;;;;;;;12.50;7.22;;;;;;;10.29;84.24;101700.38;4991969;28;20035;-43
2021/10/28 07:14:27;;;;;;;19.15;10.13;;;;;;;10.32;84.29;101699.91;4992489;28;20050;-46
2021/10/28 07:19:53;;;;;;;13.88;7.20;;;;;;;10.41;83.50;101694.88;4993687;28;20042;-47
2021/10/28 07:22:46;;;;;;;24.33;7.35;;;;;;;10.40;83.21;101693.22;4984561;28;20042;-46
2021/10/28 07:30:34;;;;;;;14.35;7.93;;;;;;;10.42;83.50;101693.81;4991593;28;20053;-46
2021/10/28 07:57:49;;;;;;;15.10;8.65;;;;;;;10.38;83.28;101698.09;4992670;28;20050;-47
2021/10/28 08:19:43;;;;;;;13.93;8.75;;;;;;;10.47;84.52;101688.44;4970762;28;20074;-49
2021/10/28 08:30:15;;;;;;;12.50;8.98;;;;;;;10.53;85.05;101684.72;4970799;28;20046;-47
2021/10/28 08:32:43;;;;;;;12.27;8.70;;;;;;;10.54;84.86;101686.41;4963747;28;20569;-47
2021/10/28 08:35:32;;;;;;;13.60;8.23;;;;;;;10.59;85.30;101682.94;4955471;28;20047;-46
2021/10/28 08:38:01;;;;;;;14.85;8.80;;;;;;;10.59;85.14;101670.13;4962788;28;20055;-45
2021/10/28 08:40:29;;;;;;;12.98;9.18;;;;;;;10.61;85.52;101670.72;4965478;28;20059;-47
2021/10/28 08:43:03;;;;;;;11.82;8.52;;;;;;;10.64;85.00;101663.94;4950508;28;20059;-47
2021/10/28 08:45:35;;;;;;;15.07;9.30;;;;;;;10.66;85.44;101659.88;4964085;28;20246;-47
2021/10/28 08:48:06;;;;;;;13.75;8.85;;;;;;;10.70;85.46;101662.09;4960402;28;20074;-46
2021/10/28 08:50:43;;;;;;;12.80;8.75;;;;;;;10.73;85.29;101661.63;4966662;28;20054;-48
2021/10/28 08:55:59;;;;;;;16.23;9.20;;;;;;;10.77;85.36;101651.88;4992724;28;20360;-43
2021/10/28 08:58:41;;;;;;;11.73;8.50;;;;;;;10.78;85.90;101648.91;4996489;28;20046;-47
2021/10/28 09:23:54;;;;;;;17.50;9.27;;;;;;;10.82;86.55;101624.69;4903427;29;20503;-47
2021/10/28 09:25:34;;;;;;;15.63;9.73;;;;;;;10.91;87.25;101620.47;4902257;29;20059;-47
2021/10/28 09:28:14;;;;;;;15.73;9.98;;;;;;;10.91;87.61;101615.00;4909498;29;20056;-47
2021/10/28 09:30:56;;;;;;;14.20;9.55;;;;;;;10.93;87.61;101612.84;4916622;29;20107;-50
2021/10/28 09:33:48;;;;;;;12.75;9.65;;;;;;;10.97;87.82;101603.09;4914881;29;20455;-48
2021/10/28 09:45:39;;;;;;;12.35;8.77;;;;;;;11.17;87.44;101590.81;4933687;29;20052;-47
2021/10/28 09:51:13;;;;;;;15.50;9.90;;;;;;;11.23;87.44;101581.59;4952384;28;20039;-44
2021/10/28 09:59:55;;;;;;;18.00;10.02;;;;;;;11.33;87.48;101570.84;4952646;28;20438;-47
2021/10/28 10:05:05;;;;;;;16.02;9.20;;;;;;;11.46;87.49;101570.44;4955686;28;20039;-47
2021/10/28 10:07:33;;;;;;;14.82;10.35;;;;;;;11.58;87.15;101575.75;4953244;28;20043;-48
2021/10/28 10:10:01;;;;;;;15.02;8.82;;;;;;;11.64;87.61;101572.00;4954519;28;20039;-48
2021/10/28 10:12:29;;;;;;;17.10;10.55;;;;;;;11.73;86.65;101566.91;4956077;28;20047;-46
2021/10/28 10:14:56;;;;;;;14.48;10.32;;;;;;;11.69;85.63;101561.16;4953459;29;20051;-44
2021/10/28 10:17:24;;;;;;;17.13;10.50;;;;;;;11.68;85.84;101558.66;4934043;29;20047;-47
2021/10/28 10:19:55;;;;;;;14.13;8.90;;;;;;;11.70;85.42;101553.78;4952835;28;20055;-47
2021/10/28 10:25:36;;;;;;;22.38;10.38;;;;;;;11.74;86.34;101541.25;4974455;28;20105;-47
2021/10/28 10:29:18;;;;;;;16.98;9.98;;;;;;;11.77;87.15;101540.75;4994536;28;20042;-49
2021/10/28 11:32:16;;;;;;;16.73;9.82;;;;;;;12.58;82.13;101465.97;4993561;28;20386;-47
2021/10/28 12:45:58;;;;;;;16.23;9.02;;;;;;;13.43;81.22;101348.03;4916013;29;20058;-48
2021/10/28 12:48:59;;;;;;;17.35;8.38;;;;;;;13.45;81.30;101348.56;4931719;29;20407;-47
2021/10/28 13:28:27;;;;;;;9.77;4.97;;;;;;;14.09;74.85;101302.44;4991816;28;19922;-48
2021/10/28 13:50:35;;;;;;;12.00;4.97;;;;;;;14.14;73.57;101262.13;4994932;28;20109;-46
2021/10/28 14:58:50;;;;;;;7.40;3.83;;;;;;;14.35;73.51;101218.16;5006344;28;20049;-47
2021/10/28 15:01:42;;;;;;;8.38;4.15;;;;;;;14.43;73.69;101223.88;4994318;28;20043;-46
2021/10/28 15:29:11;;;;;;;8.30;3.67;;;;;;;14.25;70.29;101200.66;4981642;28;20050;-46
2021/10/28 15:40:15;;;;;;;8.48;3.92;;;;;;;14.23;70.07;101185.63;4264767;28;10000163;-50
2021/10/28 15:43:09;;;;;;;7.22;3.53;;;;;;;14.22;70.95;101184.81;4962665;28;20055;-44
2021/10/28 16:24:11;;;;;;;8.35;4.30;;;;;;;13.84;72.40;101170.75;4863885;29;20037;-48
2021/10/28 16:26:39;;;;;;;10.15;5.00;;;;;;;13.81;72.50;101156.81;4861193;29;20057;-46
2021/10/28 16:29:11;;;;;;;11.13;5.75;;;;;;;13.79;72.72;101159.81;4864220;29;20075;-48
2021/10/28 16:31:41;;;;;;;11.95;5.70;;;;;;;13.77;72.86;101161.22;4873848;29;20048;-50
2021/10/28 16:34:09;;;;;;;14.23;7.13;;;;;;;13.75;73.10;101163.41;4899900;29;20074;-47
2021/10/28 16:36:37;;;;;;;13.20;7.82;;;;;;;13.73;73.24;101160.13;4888397;29;20044;-48
2021/10/28 16:39:11;;;;;;;9.73;5.63;;;;;;;13.70;73.35;101161.50;4894962;29;20335;-48
2021/10/28 16:41:41;;;;;;;8.90;5.38;;;;;;;13.68;73.56;101162.88;4913700;29;20063;-44
2021/10/28 16:44:09;;;;;;;9.77;5.40;;;;;;;13.65;73.54;101158.78;4944688;29;20106;-47
2021/10/28 16:46:38;;;;;;;9.77;5.45;;;;;;;13.62;73.71;101162.09;4944826;29;20167;-48
2021/10/28 16:49:08;;;;;;;9.63;5.05;;;;;;;13.61;74.04;101164.03;4952939;28;20634;-46
2021/10/28 16:51:36;;;;;;;8.27;4.60;;;;;;;13.60;74.30;101156.91;4989717;28;20065;-46
2021/10/28 16:54:03;;;;;;;9.25;4.95;;;;;;;13.57;74.16;101157.47;4988472;28;20042;-43
2021/10/28 16:56:32;;;;;;;9.60;5.00;;;;;;;13.53;74.38;101156.38;4989797;28;20039;-47
2021/10/28 16:58:59;;;;;;;11.13;5.13;;;;;;;13.52;75.09;101148.47;4990175;28;20401;-47
2021/10/28 17:01:27;;;;;;;8.90;5.32;;;;;;;13.51;75.13;101160.50;4989868;28;20049;-49
2021/10/28 17:03:55;;;;;;;9.57;5.15;;;;;;;13.50;74.94;101158.88;4989598;28;20042;-47
2021/10/28 17:06:23;;;;;;;10.73;6.20;;;;;;;13.48;75.30;101158.31;4981755;28;20092;-48
2021/10/28 17:09:02;;;;;;;13.57;6.30;;;;;;;13.46;75.77;101152.31;4989655;28;20057;-49
2021/10/28 17:11:30;;;;;;;12.10;6.07;;;;;;;13.44;75.48;101155.31;4993713;28;20053;-47
2021/10/28 17:13:57;;;;;;;10.20;6.65;;;;;;;13.44;75.41;101141.63;4993035;28;20042;-49
2021/10/28 17:16:26;;;;;;;13.80;7.82;;;;;;;13.41;75.86;101144.91;4992532;28;20505;-47
2021/10/28 17:18:54;;;;;;;16.17;7.03;;;;;;;13.40;75.90;101144.09;4993666;28;20042;-47
2021/10/28 17:21:21;;;;;;;12.48;6.00;;;;;;;13.39;75.75;101144.38;4993250;28;20434;-43
2021/10/28 17:23:58;;;;;;;17.10;5.95;;;;;;;13.37;75.76;101141.09;4993134;28;20046;-47
2021/10/28 17:26:27;;;;;;;10.52;6.03;;;;;;;13.36;76.42;101153.16;4992658;28;20121;-46
2021/10/28 17:28:59;;;;;;;9.85;5.93;;;;;;;13.34;76.11;101144.41;4993693;28;20928;-48
2021/10/28 17:31:29;;;;;;;15.98;7.57;;;;;;;13.32;76.19;101144.66;4993314;28;20054;-45
2021/10/28 17:33:57;;;;;;;9.80;6.13;;;;;;;13.30;76.15;101135.94;4992586;28;20069;-46
2021/10/28 17:36:26;;;;;;;12.07;5.95;;;;;;;13.30;76.04;101129.63;4992471;28;20119;-46
2021/10/28 17:38:55;;;;;;;11.48;5.70;;;;;;;13.29;76.60;101133.47;4991989;28;20060;-47
2021/10/28 17:41:23;;;;;;;12.65;6.97;;;;;;;13.27;76.62;101132.91;4993184;28;20066;-46
2021/10/28 17:43:53;;;;;;;10.63;6.28;;;;;;;13.26;76.32;101134.00;4992765;28;20046;-47
2021/10/28 17:46:24;;;;;;;11.02;6.00;;;;;;;13.25;76.14;101137.81;4992491;28;20042;-47
2021/10/28 17:48:52;;;;;;;14.35;6.63;;;;;;;13.22;76.05;101134.53;4993115;28;20042;-48
2021/10/28 17:51:21;;;;;;;12.70;6.28;;;;;;;13.20;76.02;101142.22;4979103;28;20053;-46
2021/10/28 17:53:49;;;;;;;15.00;7.25;;;;;;;13.21;76.08;101148.53;4991670;28;20046;-49
2021/10/28 17:56:17;;;;;;;12.77;7.03;;;;;;;13.17;76.53;101140.03;4992650;28;20053;-46
2021/10/28 17:58:45;;;;;;;13.27;6.32;;;;;;;13.16;76.36;101141.13;4993068;28;20046;-48
2021/10/28 18:01:15;;;;;;;11.63;6.32;;;;;;;13.15;76.27;101138.66;4991258;28;20050;-46
2021/10/28 18:03:43;;;;;;;10.48;6.28;;;;;;;13.13;76.32;101138.97;4990739;28;20034;-47
2021/10/28 18:06:11;;;;;;;13.05;6.38;;;;;;;13.10;76.25;101139.50;4990095;28;20042;-46
2021/10/28 18:08:38;;;;;;;12.15;6.55;;;;;;;13.08;76.99;101138.94;4992333;28;20054;-47
2021/10/28 18:11:06;;;;;;;11.05;6.18;;;;;;;13.07;76.95;101131.84;4992857;28;20038;-46
2021/10/28 18:13:35;;;;;;;15.95;7.40;;;;;;;13.07;76.65;101131.03;4992451;28;20047;-46
2021/10/28 18:16:05;;;;;;;12.85;6.38;;;;;;;13.06;76.86;101123.91;4991779;28;20046;-47
2021/10/28 18:18:37;;;;;;;10.63;6.05;;;;;;;13.05;76.84;101128.56;4990750;28;20049;-47
2021/10/28 18:21:05;;;;;;;13.75;6.43;;;;;;;13.05;77.08;101131.31;4991370;28;20038;-46
2021/10/28 18:23:35;;;;;;;11.18;6.30;;;;;;;12.99;76.89;101125.03;4991637;28;20053;-48
2021/10/28 18:26:02;;;;;;;13.32;7.18;;;;;;;12.99;77.10;101124.22;4991447;28;20050;-47
2021/10/28 18:28:30;;;;;;;10.65;6.50;;;;;;;12.98;77.27;101128.03;4991806;28;20043;-51
2021/10/28 18:30:58;;;;;;;10.95;6.15;;;;;;;12.97;77.04;101129.16;4992353;28;20049;-46
2021/10/28 18:33:25;;;;;;;12.70;7.30;;;;;;;12.94;77.09;101132.41;4991465;28;20061;-45
2021/10/28 18:35:53;;;;;;;13.80;6.00;;;;;;;12.93;77.37;101130.78;4988856;28;20062;-46
2021/10/28 18:38:25;;;;;;;9.70;6.20;;;;;;;12.92;77.72;101123.69;4991025;28;20483;-46
2021/10/28 18:40:57;;;;;;;12.00;5.90;;;;;;;12.92;77.96;101120.97;4991702;28;20049;-48
2021/10/28 18:43:25;;;;;;;9.98;6.15;;;;;;;12.95;77.61;101123.13;4991657;28;20565;-46
2021/10/28 18:45:53;;;;;;;12.75;6.72;;;;;;;12.92;78.01;101123.69;4991118;28;20042;-48
2021/10/28 18:48:22;;;;;;;12.00;6.38;;;;;;;12.90;77.61;101117.69;4991580;28;20045;-46
2021/10/28 18:50:50;;;;;;;13.27;6.93;;;;;;;12.85;78.31;101117.69;4991252;28;20061;-46
2021/10/28 18:53:17;;;;;;;11.48;6.63;;;;;;;12.85;78.18;101123.97;5005880;28;20058;-48
2021/10/28 18:55:45;;;;;;;13.15;7.10;;;;;;;12.85;78.60;101126.69;4990652;28;20054;-47
2021/10/28 18:58:13;;;;;;;12.20;7.25;;;;;;;12.85;77.99;101121.22;4991747;28;20034;-48
2021/10/28 19:00:40;;;;;;;10.90;6.78;;;;;;;12.82;78.14;101123.69;4991827;28;20054;-47
2021/10/28 19:03:08;;;;;;;13.27;7.35;;;;;;;12.81;78.15;101128.34;4990830;28;20345;-47
2021/10/28 19:05:39;;;;;;;12.13;7.10;;;;;;;12.79;78.33;101125.06;4985375;28;20023;-47
2021/10/28 19:08:07;;;;;;;12.20;7.18;;;;;;;12.77;78.25;101125.34;4988807;28;20085;-49
2021/10/28 19:10:34;;;;;;;11.15;6.95;;;;;;;12.78;78.86;101118.78;4991346;28;20054;-44
2021/10/28 19:13:02;;;;;;;11.98;6.50;;;;;;;12.77;78.39;101122.63;4990919;28;20042;-47
2021/10/28 19:15:30;;;;;;;12.38;6.85;;;;;;;12.75;78.05;101108.41;4990625;28;20061;-47
2021/10/28 19:17:58;;;;;;;11.27;6.65;;;;;;;12.74;78.07;101105.94;4990723;28;20097;-47
2021/10/28 19:20:26;;;;;;;11.07;7.03;;;;;;;12.74;78.16;101108.66;4990994;28;20043;-46
2021/10/28 19:22:54;;;;;;;12.57;6.88;;;;;;;12.73;78.76;101105.13;4991090;28;20057;-47
2021/10/28 19:25:22;;;;;;;12.77;6.97;;;;;;;12.72;78.78;101108.97;4990903;28;20038;-44
2021/10/28 19:28:00;;;;;;;10.57;6.88;;;;;;;12.71;78.39;101101.84;4990476;28;20283;-46
2021/10/28 19:30:37;;;;;;;12.88;7.20;;;;;;;12.71;78.27;101096.38;4977467;28;20042;-48
2021/10/28 19:33:11;;;;;;;13.40;6.93;;;;;;;12.70;78.02;101100.22;4990074;28;20049;-47
2021/10/28 19:35:42;;;;;;;16.05;7.03;;;;;;;12.69;78.45;101095.81;4985363;28;20049;-47
2021/10/28 19:46:47;;;;;;;10.35;6.68;;;;;;;12.58;77.63;101086.00;4943969;28;20110;-48
2021/10/28 19:49:15;;;;;;;15.02;6.75;;;;;;;12.58;77.87;101091.47;4940689;29;20210;-45
2021/10/28 19:51:43;;;;;;;13.77;7.25;;;;;;;12.58;77.41;101096.94;4946286;29;20438;-47
2021/10/28 19:54:12;;;;;;;12.00;6.47;;;;;;;12.58;77.89;101091.47;4929525;28;20438;-45
2021/10/28 19:56:41;;;;;;;10.73;6.53;;;;;;;12.60;77.30;101088.44;4936106;29;20066;-46
2021/10/28 19:59:11;;;;;;;11.93;6.55;;;;;;;12.62;77.17;101086.25;4934645;29;20636;-44
2021/10/28 20:01:45;;;;;;;13.48;7.30;;;;;;;12.62;77.44;101087.06;4943070;29;20043;-46
2021/10/28 20:04:31;;;;;;;13.73;6.72;;;;;;;12.62;77.09;101081.59;4945215;29;20411;-45
2021/10/28 20:07:22;;;;;;;12.90;6.43;;;;;;;12.64;76.60;101090.34;4938220;29;20048;-48
2021/10/28 20:20:03;;;;;;;12.38;7.65;;;;;;;12.60;75.96;101083.78;4931629;29;20552;-47